LIMZKCLW

Guest
Details From LIMZ - Levaldigi
To KCLW - Clearwater Air Park
Flight Number -
Tags Decoded
Created
Modified
Stats Distance 4,475 nm / 8,288 km
Max Altitude 0 ft / 0 m
Waypoints 3
Social Downloads 1
Likes 0
Share VATSIM

Download

Looking for another format? Having issues loading an existing format? Contact us
Advertisement - Login to hide

Notes

Decoded

Route

LEV REMIS BOXKR

ID Type Via Altitude Latitude Longitude Leg Dist Tot Dist Heading (true) Name
O LEV NDB - 0 ft / 0 m 44.54422˚ 7.61539˚ - 0 nm - LEVALDIGI NDB
REMIS FIX - 0 ft / 0 m 27.88406˚ -85.25789˚ 4369 nm 4369 nm 292° / 228° -
O BOXKR FIX - 0 ft / 0 m 27.58600˚ -83.29878˚ 105 nm 4475 nm 99° / 100° -

Altitude Profile

Advertisement - Login to hide

Weather


0- 5 10 15 20 25 30 35+ Temperature / ° C

Clouds and Precipitation
Forecast for 2017-12-15 12:00 UTC. Updated an hour ago

Ground ~20,000 ft ~40,000 ft Winds

LIMZ

Details ICAO LIMZ (CUF)
Name LEVALDIGI
Region Italy
Timezone Europe/Rome (UTC+1.0)
Stats Elevation 1,267 ft / 386 m (AMSL)
Location 44.547603° 7.623322°
Runways 1
Magnetic Variation 2.113° E

METAR

LIMZ 150750Z 21009KT 9999 FEW015 M06/M07 Q1000

Decode

TAF

TAF LIMZ 150500Z 1506/1606 VRB05KT 9999 BKN070

Decode

Departure Runways

ID Width Length Bearing (true) Bearing (mag) Surface Threshold Offset Overrun Length
03 148 ft / 45 m 6,903 ft / 2,104 m 32.49° 30.38° Asphalt 0 ft / 0 m 696 ft / 212 m
21 148 ft / 45 m 6,903 ft / 2,104 m 212.50° 210.39° Asphalt 0 ft / 0 m 581 ft / 177 m

KCLW

Details ICAO KCLW (CLW)
Name CLEARWATER AIR PARK
Region United States
Timezone America/New_York (UTC-5.0)
Stats Elevation 71 ft / 22 m (AMSL)
Location 27.976686° -82.758741°
Runways 1
Magnetic Variation 5.412° W

METAR

KCLW 150815Z AUTO 17004KT 10SM SCT027 SCT033 OVC060 18/15 A3004 RMK AO2

Decode

TAF

Not found

Destination Runways

ID Width Length Bearing (true) Bearing (mag) Surface Threshold Offset Overrun Length
16 75 ft / 23 m 3,317 ft / 1,011 m 154.76° 160.17° Asphalt 300 ft / 91 m 0 ft / 0 m
34 75 ft / 23 m 3,317 ft / 1,011 m 334.76° 340.17° Asphalt 650 ft / 198 m 0 ft / 0 m